createdAt,value
2018-10-11T00:00:03.160Z,97.00
2018-10-11T00:02:31.359Z,96.60
2018-10-11T00:04:59.569Z,96.60
2018-10-11T00:07:27.756Z,96.90
2018-10-11T00:09:55.957Z,97.30
2018-10-11T00:12:24.281Z,97.80
2018-10-11T00:14:52.651Z,98.10
2018-10-11T00:17:20.874Z,98.20
2018-10-11T00:19:49.108Z,98.40
2018-10-11T00:22:17.297Z,98.60
2018-10-11T00:24:45.530Z,98.70
2018-10-11T00:27:13.705Z,99.00
2018-10-11T00:29:41.934Z,99.20
2018-10-11T00:32:10.109Z,99.40
2018-10-11T00:34:38.325Z,99.40
2018-10-11T00:37:06.900Z,99.90
2018-10-11T00:39:35.110Z,99.90
2018-10-11T00:42:03.317Z,99.90
2018-10-11T00:44:31.530Z,99.90
2018-10-11T00:46:59.726Z,99.90
2018-10-11T00:49:27.963Z,99.50
2018-10-11T00:51:56.151Z,99.40
2018-10-11T00:54:24.361Z,99.10
2018-10-11T00:56:52.564Z,99.10
2018-10-11T00:59:21.005Z,98.90
2018-10-11T01:01:49.209Z,98.80
2018-10-11T01:04:17.446Z,98.60
2018-10-11T01:06:45.665Z,98.50
2018-10-11T01:09:13.910Z,98.40
2018-10-11T01:11:42.325Z,98.40
2018-10-11T01:14:11.118Z,98.40
2018-10-11T01:16:39.502Z,98.40
2018-10-11T01:19:07.968Z,98.50
2018-10-11T01:21:36.397Z,98.80
2018-10-11T01:24:04.622Z,99.30
2018-10-11T01:26:32.836Z,99.90
2018-10-11T01:29:01.019Z,99.90
2018-10-11T01:31:29.247Z,99.90
2018-10-11T01:33:57.430Z,99.90
2018-10-11T01:36:25.652Z,99.90
2018-10-11T01:38:54.349Z,99.90
2018-10-11T01:41:22.665Z,99.90
2018-10-11T01:43:51.045Z,99.90
2018-10-11T01:46:19.266Z,99.90
2018-10-11T01:48:47.488Z,99.70
2018-10-11T01:51:16.609Z,99.50
2018-10-11T01:53:44.829Z,99.60
2018-10-11T01:56:13.061Z,99.80
2018-10-11T01:58:41.258Z,99.90
2018-10-11T02:01:09.672Z,99.80
2018-10-11T02:03:37.865Z,99.90
2018-10-11T02:06:06.373Z,99.90
2018-10-11T02:08:34.583Z,99.90
2018-10-11T02:11:02.843Z,99.90
2018-10-11T02:13:31.033Z,99.90
2018-10-11T02:15:59.261Z,99.90
2018-10-11T02:18:27.481Z,99.90
2018-10-11T02:20:55.677Z,99.90
2018-10-11T02:23:23.890Z,99.90
2018-10-11T02:25:52.074Z,99.90
2018-10-11T02:28:20.499Z,99.90
2018-10-11T02:30:48.681Z,99.30
2018-10-11T02:33:16.925Z,99.00
2018-10-11T02:35:45.151Z,98.40
2018-10-11T02:38:13.341Z,98.10
2018-10-11T02:40:41.546Z,97.80
2018-10-11T02:43:09.746Z,97.30
2018-10-11T02:45:37.929Z,97.00
2018-10-11T02:48:06.576Z,96.90
2018-10-11T02:50:35.018Z,96.90
2018-10-11T02:53:03.215Z,97.30
2018-10-11T02:55:31.433Z,97.40
2018-10-11T02:58:11.024Z,97.70
2018-10-11T03:00:39.404Z,98.10
2018-10-11T03:03:10.234Z,97.80
2018-10-11T03:05:41.062Z,98.00
2018-10-11T03:08:11.505Z,98.20
2018-10-11T03:10:39.869Z,98.60
2018-10-11T03:13:09.833Z,99.10
2018-10-11T03:15:38.055Z,98.50
2018-10-11T03:18:06.279Z,98.90
2018-10-11T03:20:34.477Z,98.90
2018-10-11T03:23:02.701Z,99.10
2018-10-11T03:25:30.881Z,99.00
2018-10-11T03:27:59.076Z,98.80
2018-10-11T03:30:27.262Z,98.50
2018-10-11T03:32:55.553Z,98.40
2018-10-11T03:35:23.886Z,98.30
2018-10-11T03:37:52.105Z,98.90
2018-10-11T03:40:20.321Z,99.00
2018-10-11T03:42:48.539Z,98.90
2018-10-11T03:45:16.729Z,99.10
2018-10-11T03:47:44.939Z,99.00
2018-10-11T03:50:13.201Z,98.90
2018-10-11T03:52:41.381Z,98.90
2018-10-11T03:55:09.777Z,98.70
2018-10-11T03:57:37.975Z,98.20
2018-10-11T04:00:06.355Z,97.60
2018-10-11T04:02:34.601Z,97.50
2018-10-11T04:05:02.822Z,97.60
2018-10-11T04:07:31.096Z,97.90
2018-10-11T04:09:59.229Z,97.80
2018-10-11T04:12:27.429Z,98.00
2018-10-11T04:14:55.614Z,97.40
2018-10-11T04:17:23.914Z,97.40
2018-10-11T04:19:52.139Z,97.40
2018-10-11T04:22:20.353Z,97.60
2018-10-11T04:24:48.562Z,97.80
2018-10-11T04:27:16.765Z,97.80
2018-10-11T04:29:44.977Z,98.10
2018-10-11T04:32:13.170Z,98.30
2018-10-11T04:34:41.430Z,98.70
2018-10-11T04:37:09.959Z,98.70
2018-10-11T04:39:38.390Z,98.80
2018-10-11T04:42:07.217Z,99.00
2018-10-11T04:44:36.408Z,98.70
2018-10-11T04:47:04.956Z,98.60
2018-10-11T04:49:33.382Z,98.70
2018-10-11T04:52:01.562Z,98.80
2018-10-11T04:54:29.785Z,98.80
2018-10-11T04:56:57.969Z,98.30
2018-10-11T04:59:26.193Z,98.30
2018-10-11T05:01:54.463Z,97.30
2018-10-11T05:04:22.673Z,96.90
2018-10-11T05:06:50.873Z,96.90
2018-10-11T05:09:19.089Z,97.00
2018-10-11T05:11:47.306Z,96.90
2018-10-11T05:14:15.677Z,97.00
2018-10-11T05:16:44.105Z,97.70
2018-10-11T05:19:12.349Z,97.80
2018-10-11T05:21:40.865Z,97.60
2018-10-11T05:24:09.203Z,97.30
2018-10-11T05:26:37.419Z,97.20
2018-10-11T05:29:05.633Z,97.40
2018-10-11T05:31:33.857Z,97.30
2018-10-11T05:34:02.062Z,97.20
2018-10-11T05:36:30.262Z,97.70
2018-10-11T05:38:58.550Z,98.00
2018-10-11T05:41:26.798Z,98.30
2018-10-11T05:43:55.033Z,98.80
2018-10-11T05:46:30.496Z,98.90
2018-10-11T05:48:59.412Z,98.90
2018-10-11T05:51:28.377Z,98.80
2018-10-11T05:53:57.197Z,98.40
2018-10-11T05:56:27.513Z,97.60
2018-10-11T05:58:56.033Z,97.20
2018-10-11T06:01:24.883Z,97.20
2018-10-11T06:03:53.502Z,96.80
2018-10-11T06:06:21.757Z,96.50
2018-10-11T06:08:50.017Z,96.40
2018-10-11T06:11:18.253Z,96.60
2018-10-11T06:13:47.125Z,96.90
2018-10-11T06:16:15.486Z,96.90
2018-10-11T06:18:44.782Z,96.50
2018-10-11T06:21:13.231Z,96.80
2018-10-11T06:23:41.545Z,96.80
2018-10-11T06:26:09.782Z,97.10
2018-10-11T06:28:38.589Z,97.20
2018-10-11T06:31:07.108Z,97.00
2018-10-11T06:33:35.417Z,96.70
2018-10-11T06:36:04.086Z,96.60
2018-10-11T06:38:32.625Z,96.30
2018-10-11T06:41:00.869Z,96.00
2018-10-11T06:43:29.207Z,95.40
2018-10-11T06:45:57.564Z,95.30
2018-10-11T06:48:25.795Z,95.30
2018-10-11T06:50:54.322Z,94.70
2018-10-11T06:53:22.597Z,94.20
2018-10-11T06:55:50.863Z,93.80
2018-10-11T06:58:19.054Z,93.60
2018-10-11T07:00:47.273Z,93.00
2018-10-11T07:03:15.477Z,93.20
2018-10-11T07:05:43.706Z,92.00
2018-10-11T07:08:11.972Z,91.80
2018-10-11T07:10:40.209Z,91.60
2018-10-11T07:13:08.817Z,92.00
2018-10-11T07:15:37.255Z,90.90
2018-10-11T07:18:05.493Z,90.80
2018-10-11T07:20:33.953Z,90.30
2018-10-11T07:23:02.151Z,90.40
2018-10-11T07:25:30.365Z,90.50
2018-10-11T07:27:58.603Z,89.90
2018-10-11T07:30:27.550Z,88.80
2018-10-11T07:32:56.058Z,87.80
2018-10-11T07:35:24.599Z,87.40
2018-10-11T07:37:53.028Z,86.10
2018-10-11T07:40:21.307Z,85.20
2018-10-11T07:42:49.454Z,84.90
2018-10-11T07:45:18.067Z,82.60
2018-10-11T07:47:46.273Z,82.50
2018-10-11T07:50:14.521Z,81.10
2018-10-11T07:52:42.729Z,80.70
2018-10-11T07:55:10.973Z,80.10
2018-10-11T07:57:39.277Z,78.60
2018-10-11T08:00:10.815Z,78.40
2018-10-11T08:02:39.529Z,77.40
2018-10-11T08:05:07.780Z,77.70
2018-10-11T08:07:35.975Z,77.20
2018-10-11T08:10:04.194Z,77.60
2018-10-11T08:12:32.381Z,76.10
2018-10-11T08:15:00.595Z,74.90
2018-10-11T08:17:29.334Z,74.10
2018-10-11T08:19:57.535Z,72.40
2018-10-11T08:22:25.699Z,72.60
2018-10-11T08:24:54.150Z,71.80
2018-10-11T08:27:22.420Z,71.20
2018-10-11T08:29:50.615Z,71.40
2018-10-11T08:32:18.851Z,70.20
2018-10-11T08:34:47.025Z,70.20
2018-10-11T08:37:15.290Z,69.40
2018-10-11T08:39:43.546Z,69.10
2018-10-11T08:42:11.914Z,67.70
2018-10-11T08:44:40.131Z,67.20
2018-10-11T08:47:08.365Z,67.70
2018-10-11T08:49:36.621Z,67.70
2018-10-11T08:52:04.833Z,67.00
2018-10-11T08:54:38.516Z,65.50
2018-10-11T08:57:07.107Z,64.90
2018-10-11T08:59:35.507Z,64.00
2018-10-11T09:02:03.678Z,62.30
2018-10-11T09:04:31.974Z,62.40
2018-10-11T09:07:00.206Z,61.60
2018-10-11T09:09:28.457Z,61.60
2018-10-11T09:11:56.636Z,60.80
2018-10-11T09:14:24.857Z,60.20
2018-10-11T09:16:53.169Z,61.20
2018-10-11T09:19:21.673Z,60.10
2018-10-11T09:21:49.899Z,59.60
2018-10-11T09:24:18.161Z,59.40
2018-10-11T09:26:46.581Z,59.00
2018-10-11T09:29:15.073Z,58.40
2018-10-11T09:31:43.481Z,57.90
2018-10-11T09:34:11.690Z,57.40
2018-10-11T09:36:39.946Z,56.90
2018-10-11T09:39:08.998Z,56.00
2018-10-11T09:41:37.675Z,55.80
2018-10-11T09:44:06.402Z,55.20
2018-10-11T09:46:34.651Z,55.40
2018-10-11T09:49:03.405Z,55.30
2018-10-11T09:51:31.658Z,54.70
2018-10-11T09:53:59.914Z,55.10
2018-10-11T09:57:16.997Z,54.00
2018-10-11T09:59:45.260Z,53.70
2018-10-11T10:02:14.104Z,53.70
2018-10-11T10:04:43.869Z,53.00
2018-10-11T10:07:12.441Z,52.60
2018-10-11T10:09:41.613Z,51.80
2018-10-11T10:12:10.593Z,51.50
2018-10-11T10:14:39.421Z,49.80
2018-10-11T10:17:07.862Z,49.80
2018-10-11T10:19:40.705Z,49.10
2018-10-11T10:22:09.220Z,46.90
2018-10-11T10:24:38.194Z,43.40
2018-10-11T10:27:07.192Z,42.30
2018-10-11T10:29:36.247Z,40.30
2018-10-11T10:32:04.834Z,37.80
2018-10-11T10:34:33.164Z,36.20
2018-10-11T10:37:01.486Z,35.70
2018-10-11T10:39:29.731Z,30.70
2018-10-11T10:41:58.093Z,28.80
2018-10-11T10:44:26.299Z,25.80
2018-10-11T10:46:54.574Z,23.70
2018-10-11T10:49:22.869Z,22.90
2018-10-11T10:51:51.415Z,21.50
2018-10-11T10:54:31.515Z,20.10
2018-10-11T10:57:00.218Z,18.80
2018-10-11T10:59:28.707Z,18.10
2018-10-11T11:01:57.108Z,17.50
2018-10-11T11:04:25.429Z,17.40
2018-10-11T11:06:53.776Z,17.00
2018-10-11T11:09:22.058Z,16.80
2018-10-11T11:11:50.303Z,16.40
2018-10-11T11:14:18.795Z,15.80
2018-10-11T11:16:47.418Z,14.60
2018-10-11T11:19:16.353Z,15.00
2018-10-11T11:21:44.666Z,15.20
2018-10-11T11:24:12.999Z,15.30
2018-10-11T11:26:41.229Z,15.20
2018-10-11T11:29:09.581Z,14.50
2018-10-11T11:31:37.887Z,14.20
2018-10-11T11:34:06.442Z,14.20
2018-10-11T11:36:34.737Z,14.10
2018-10-11T11:39:05.507Z,14.00
2018-10-11T11:41:33.780Z,13.70
2018-10-11T11:44:02.491Z,14.00
2018-10-11T11:46:36.998Z,13.70
2018-10-11T11:49:05.783Z,14.30
2018-10-11T11:51:35.362Z,14.30
2018-10-11T11:54:03.609Z,14.30
2018-10-11T11:56:32.073Z,14.20
2018-10-11T11:59:00.934Z,13.70
2018-10-11T12:01:29.159Z,13.10
2018-10-11T12:03:57.414Z,13.00
2018-10-11T12:06:25.715Z,15.40
2018-10-11T12:08:54.434Z,15.60
2018-10-11T12:11:23.881Z,16.30
2018-10-11T12:13:52.126Z,16.50
2018-10-11T12:16:20.651Z,16.20
2018-10-11T12:18:48.935Z,16.10
2018-10-11T12:21:17.217Z,16.00
2018-10-11T12:23:45.510Z,15.60
2018-10-11T12:26:13.973Z,16.00
2018-10-11T12:28:42.400Z,15.90
2018-10-11T12:31:10.557Z,16.40
2018-10-11T12:33:39.002Z,16.10
2018-10-11T12:36:07.306Z,16.60
2018-10-11T12:38:35.876Z,16.80
2018-10-11T12:41:04.067Z,17.00
2018-10-11T12:43:32.421Z,16.90
2018-10-11T12:46:00.700Z,17.20
2018-10-11T12:48:28.962Z,17.20
2018-10-11T12:50:57.253Z,17.10
2018-10-11T12:53:25.555Z,17.00
2018-10-11T12:55:54.406Z,16.70
2018-10-11T12:58:24.652Z,17.30
2018-10-11T13:00:53.186Z,17.40
2018-10-11T13:03:21.481Z,17.60
2018-10-11T13:05:49.613Z,18.10
2018-10-11T13:08:17.867Z,18.20
2018-10-11T13:10:46.321Z,18.10
2018-10-11T13:13:14.544Z,17.90
2018-10-11T13:15:43.497Z,17.60
2018-10-11T13:18:11.702Z,17.40
2018-10-11T13:20:40.005Z,17.50
2018-10-11T13:23:14.514Z,17.40
2018-10-11T13:25:39.111Z,17.70
2018-10-11T13:28:08.233Z,17.90
2018-10-11T13:30:37.497Z,17.60
2018-10-11T13:33:05.770Z,17.50
2018-10-11T13:35:34.104Z,17.40
2018-10-11T13:38:02.378Z,17.60
2018-10-11T13:40:30.593Z,17.30
2018-10-11T13:42:59.238Z,17.30
2018-10-11T13:45:28.392Z,17.30
2018-10-11T13:47:57.815Z,17.30
2018-10-11T13:50:26.035Z,17.50
2018-10-11T13:52:54.636Z,17.80
2018-10-11T13:55:22.976Z,18.10
2018-10-11T13:57:51.254Z,18.10
2018-10-11T14:00:19.734Z,17.90
2018-10-11T14:02:47.928Z,17.80
2018-10-11T14:05:16.462Z,17.70
2018-10-11T14:07:44.999Z,17.60
2018-10-11T14:10:13.218Z,17.60
2018-10-11T14:12:41.557Z,17.60
2018-10-11T14:15:09.852Z,17.70
2018-10-11T14:17:38.332Z,17.80
2018-10-11T14:20:06.692Z,18.20
2018-10-11T14:22:35.332Z,19.40
2018-10-11T14:25:03.558Z,21.00
2018-10-11T14:27:31.899Z,22.80
2018-10-11T14:30:00.489Z,24.40
2018-10-11T14:32:28.701Z,25.70
2018-10-11T14:34:56.938Z,26.80
2018-10-11T14:37:25.212Z,27.80
2018-10-11T14:39:53.487Z,28.90
2018-10-11T14:42:21.717Z,29.80
2018-10-11T14:44:49.943Z,30.60
2018-10-11T14:47:18.173Z,31.60
2018-10-11T14:49:46.434Z,32.80
2018-10-11T14:52:14.776Z,33.40
2018-10-11T14:54:43.042Z,34.10
2018-10-11T14:57:11.490Z,34.50
2018-10-11T14:59:39.684Z,35.10
2018-10-11T15:02:07.842Z,35.80
2018-10-11T15:04:37.273Z,36.50
2018-10-11T15:07:06.213Z,37.10
2018-10-11T15:09:35.569Z,37.60
2018-10-11T15:12:03.792Z,38.10
2018-10-11T15:14:32.034Z,38.30
2018-10-11T15:17:00.400Z,38.80
2018-10-11T15:19:28.590Z,39.20
2018-10-11T15:21:56.821Z,39.50
2018-10-11T15:24:25.136Z,40.00
2018-10-11T15:26:53.477Z,41.10
2018-10-11T15:29:21.755Z,40.90
2018-10-11T15:31:49.935Z,41.30
2018-10-11T15:34:18.213Z,41.50
2018-10-11T15:36:46.710Z,41.70
2018-10-11T15:39:14.991Z,41.70
2018-10-11T15:41:43.272Z,42.20
2018-10-11T15:44:12.872Z,42.40
2018-10-11T15:46:41.744Z,42.60
2018-10-11T15:49:10.058Z,42.10
2018-10-11T15:51:38.602Z,42.20
2018-10-11T15:54:07.045Z,42.30
2018-10-11T15:56:35.301Z,42.60
2018-10-11T15:59:03.608Z,43.00
2018-10-11T16:01:31.850Z,43.40
2018-10-11T16:04:00.099Z,43.60
2018-10-11T16:06:28.622Z,44.00
2018-10-11T16:08:57.018Z,44.80
2018-10-11T16:11:25.208Z,45.30
2018-10-11T16:13:53.728Z,45.80
2018-10-11T16:16:21.922Z,47.10
2018-10-11T16:18:50.194Z,48.00
2018-10-11T16:21:18.457Z,48.50
2018-10-11T16:23:46.706Z,49.10
2018-10-11T16:26:14.970Z,49.90
2018-10-11T16:28:43.189Z,50.90
2018-10-11T16:31:11.418Z,50.90
2018-10-11T16:33:39.708Z,51.40
2018-10-11T16:36:07.925Z,52.30
2018-10-11T16:38:36.137Z,52.80
2018-10-11T16:41:04.400Z,53.80
2018-10-11T16:43:32.644Z,54.20
2018-10-11T16:46:00.886Z,54.90
2018-10-11T16:48:29.157Z,55.40
2018-10-11T16:50:57.395Z,56.00
2018-10-11T16:53:25.595Z,56.20
2018-10-11T16:55:53.837Z,57.00
2018-10-11T16:58:22.041Z,57.70
2018-10-11T17:00:50.715Z,57.80
2018-10-11T17:03:19.194Z,58.10
2018-10-11T17:05:47.423Z,59.30
2018-10-11T17:08:15.658Z,58.90
2018-10-11T17:10:43.873Z,59.30
2018-10-11T17:13:12.113Z,59.50
2018-10-11T17:15:40.329Z,59.70
2018-10-11T17:18:08.565Z,59.90
2018-10-11T17:20:36.806Z,60.20
2018-10-11T17:23:05.073Z,60.60
2018-10-11T17:25:33.351Z,60.80
2018-10-11T17:28:01.707Z,61.40
2018-10-11T17:30:29.905Z,61.60
2018-10-11T17:32:58.386Z,61.80
2018-10-11T17:35:26.585Z,62.20
2018-10-11T17:37:54.831Z,62.40
2018-10-11T17:40:23.088Z,62.30
2018-10-11T17:42:51.309Z,62.10
2018-10-11T17:45:19.564Z,61.60
2018-10-11T17:47:47.833Z,61.30
2018-10-11T17:50:16.083Z,61.20
2018-10-11T17:52:44.284Z,60.80
2018-10-11T17:55:12.501Z,60.50
2018-10-11T17:57:40.715Z,59.90
2018-10-11T18:00:10.182Z,59.50
2018-10-11T18:02:38.429Z,59.20
2018-10-11T18:05:07.131Z,59.00
2018-10-11T18:07:35.514Z,58.00
2018-10-11T18:10:04.078Z,58.20
2018-10-11T18:12:32.265Z,58.10
2018-10-11T18:15:00.493Z,58.10
2018-10-11T18:17:28.730Z,57.80
2018-10-11T18:19:56.945Z,57.50
2018-10-11T18:22:25.166Z,57.30
2018-10-11T18:24:53.397Z,57.00
2018-10-11T18:27:21.609Z,57.40
2018-10-11T18:29:50.255Z,58.50
2018-10-11T18:32:18.809Z,58.30
2018-10-11T18:34:47.040Z,59.00
2018-10-11T18:37:15.292Z,58.40
2018-10-11T18:39:43.515Z,58.20
2018-10-11T18:42:11.769Z,57.80
2018-10-11T18:44:40.092Z,57.80
2018-10-11T18:47:08.299Z,57.90
2018-10-11T18:49:36.672Z,58.70
2018-10-11T18:52:04.885Z,59.20
2018-10-11T18:54:33.103Z,59.00
2018-10-11T18:57:01.303Z,59.70
2018-10-11T18:59:29.517Z,60.50
2018-10-11T19:01:57.730Z,60.90
2018-10-11T19:04:25.997Z,61.50
2018-10-11T19:06:54.219Z,61.20
2018-10-11T19:09:22.445Z,60.30
2018-10-11T19:11:50.672Z,59.50
2018-10-11T19:14:18.924Z,59.00
2018-10-11T19:16:47.189Z,59.50
2018-10-11T19:19:15.459Z,59.60
2018-10-11T19:21:43.753Z,59.20
2018-10-11T19:24:12.033Z,59.60
2018-10-11T19:26:40.289Z,59.90
2018-10-11T19:29:08.630Z,59.80
2018-10-11T19:31:36.821Z,59.80
2018-10-11T19:34:05.061Z,59.80
2018-10-11T19:36:33.257Z,60.00
2018-10-11T19:39:01.534Z,60.40
2018-10-11T19:41:29.840Z,60.70
2018-10-11T19:43:58.090Z,60.50
2018-10-11T19:46:26.317Z,60.50
2018-10-11T19:48:54.548Z,60.80
2018-10-11T19:51:22.763Z,60.90
2018-10-11T19:53:50.968Z,61.40
2018-10-11T19:56:19.192Z,61.70
2018-10-11T19:58:47.394Z,61.90
2018-10-11T20:01:15.702Z,62.50
2018-10-11T20:03:43.925Z,63.20
2018-10-11T20:06:12.342Z,63.30
2018-10-11T20:08:40.585Z,63.60
2018-10-11T20:11:08.757Z,63.70
2018-10-11T20:13:37.106Z,63.90
2018-10-11T20:16:05.369Z,63.40
2018-10-11T20:18:33.746Z,62.40
2018-10-11T20:21:01.973Z,62.10
2018-10-11T20:23:30.473Z,61.40
2018-10-11T20:25:58.741Z,62.20
2018-10-11T20:28:27.158Z,61.70
2018-10-11T20:30:55.415Z,62.90
2018-10-11T20:33:23.668Z,62.30
2018-10-11T20:35:51.857Z,63.30
2018-10-11T20:38:20.118Z,64.10
2018-10-11T20:40:48.333Z,63.70
2018-10-11T20:43:16.516Z,63.10
2018-10-11T20:45:44.978Z,63.70
2018-10-11T20:48:13.229Z,64.70
2018-10-11T20:50:41.451Z,66.00
2018-10-11T20:53:09.677Z,67.30
2018-10-11T20:55:37.858Z,67.60
2018-10-11T20:58:06.081Z,68.20
2018-10-11T21:00:35.177Z,69.10
2018-10-11T21:03:03.401Z,70.00
2018-10-11T21:05:31.610Z,69.70
2018-10-11T21:08:00.085Z,70.80
2018-10-11T21:10:28.330Z,71.60
2018-10-11T21:12:56.541Z,72.20
2018-10-11T21:15:24.745Z,73.00
2018-10-11T21:17:52.988Z,74.10
2018-10-11T21:20:21.304Z,74.90
2018-10-11T21:22:49.464Z,76.40
2018-10-11T21:25:17.710Z,76.90
2018-10-11T21:27:45.956Z,78.30
2018-10-11T21:30:14.423Z,79.60
2018-10-11T21:32:42.627Z,80.50
2018-10-11T21:35:10.989Z,80.70
2018-10-11T21:37:39.170Z,81.60
2018-10-11T21:40:07.412Z,82.90
2018-10-11T21:42:35.682Z,83.70
2018-10-11T21:45:03.949Z,84.30
2018-10-11T21:47:32.204Z,84.50
2018-10-11T21:50:00.419Z,84.50
2018-10-11T21:52:28.812Z,84.50
2018-10-11T21:54:56.978Z,84.40
2018-10-11T21:57:25.177Z,84.30
2018-10-11T21:59:53.455Z,84.40
2018-10-11T22:02:21.783Z,84.50
2018-10-11T22:04:50.016Z,84.10
2018-10-11T22:07:18.245Z,83.80
2018-10-11T22:09:46.473Z,83.50
2018-10-11T22:12:14.675Z,82.90
2018-10-11T22:14:43.020Z,82.70
2018-10-11T22:17:11.194Z,82.40
2018-10-11T22:19:39.421Z,82.60
2018-10-11T22:22:07.669Z,82.00
2018-10-11T22:24:35.924Z,82.20
2018-10-11T22:27:04.132Z,82.50
2018-10-11T22:29:32.369Z,82.90
2018-10-11T22:32:00.836Z,84.00
2018-10-11T22:34:29.035Z,83.50
2018-10-11T22:36:57.510Z,84.40
2018-10-11T22:39:25.634Z,84.40
2018-10-11T22:41:53.901Z,85.30
2018-10-11T22:44:22.146Z,85.00
2018-10-11T22:46:50.323Z,86.40
2018-10-11T22:49:18.510Z,85.60
2018-10-11T22:51:46.746Z,86.40
2018-10-11T22:54:14.957Z,84.60
2018-10-11T22:56:43.189Z,84.40
2018-10-11T22:59:11.602Z,83.80
2018-10-11T23:01:39.794Z,81.80
2018-10-11T23:04:08.026Z,81.20
2018-10-11T23:06:36.245Z,80.10
2018-10-11T23:09:05.954Z,79.90
2018-10-11T23:11:34.197Z,80.00
2018-10-11T23:14:02.764Z,79.40
2018-10-11T23:16:30.972Z,80.00
2018-10-11T23:18:59.181Z,81.00
2018-10-11T23:21:27.695Z,80.80
2018-10-11T23:23:55.923Z,82.00
2018-10-11T23:26:24.150Z,82.30
2018-10-11T23:28:52.433Z,82.60
2018-10-11T23:31:20.641Z,82.30
2018-10-11T23:33:49.045Z,82.60
2018-10-11T23:36:17.285Z,82.60
2018-10-11T23:38:45.529Z,82.40
2018-10-11T23:41:13.798Z,83.00
2018-10-11T23:43:42.134Z,83.50
2018-10-11T23:46:10.422Z,83.80
2018-10-11T23:48:38.698Z,84.10
2018-10-11T23:51:07.094Z,84.20
2018-10-11T23:53:35.470Z,84.10
2018-10-11T23:56:03.714Z,84.30
2018-10-11T23:58:31.911Z,85.00
